createdAt,value
2023-06-11T00:00:08.644Z,9.745289
2023-06-11T00:01:08.607Z,9.745263
2023-06-11T00:02:08.607Z,9.745452
2023-06-11T00:03:08.791Z,9.745524
2023-06-11T00:04:08.693Z,9.745533
2023-06-11T00:05:08.828Z,9.745462
2023-06-11T00:06:08.572Z,9.745432
2023-06-11T00:07:08.559Z,9.745411
2023-06-11T00:08:09.557Z,9.745530
2023-06-11T00:09:08.576Z,9.745520
2023-06-11T00:10:08.593Z,9.745466
2023-06-11T00:11:08.528Z,9.745502
2023-06-11T00:12:08.558Z,9.745405
2023-06-11T00:13:08.514Z,9.745426
2023-06-11T00:14:08.543Z,9.745419
2023-06-11T00:15:08.760Z,9.745441
2023-06-11T00:16:08.509Z,9.745362
2023-06-11T00:17:08.500Z,9.745460
2023-06-11T00:18:08.574Z,9.745461
2023-06-11T00:19:08.504Z,9.745333
2023-06-11T00:20:08.466Z,9.745378
2023-06-11T00:21:08.466Z,9.745362
2023-06-11T00:22:08.445Z,9.745435
2023-06-11T00:23:08.468Z,9.745405
2023-06-11T00:24:08.504Z,9.744945
2023-06-11T00:25:08.679Z,9.745423
2023-06-11T00:26:08.441Z,9.745484
2023-06-11T00:27:08.407Z,9.745987
2023-06-11T00:28:08.432Z,9.745745
2023-06-11T00:29:08.422Z,9.745543
2023-06-11T00:30:08.391Z,9.745386
2023-06-11T00:31:08.414Z,9.745513
2023-06-11T00:32:08.458Z,9.745518
2023-06-11T00:33:08.494Z,9.745588
2023-06-11T00:34:08.368Z,9.745512
2023-06-11T00:35:08.926Z,9.745682
2023-06-11T00:36:08.345Z,9.745432
2023-06-11T00:37:08.338Z,9.745574
2023-06-11T00:38:08.335Z,9.745520
2023-06-11T00:39:08.329Z,9.745634
2023-06-11T00:40:08.309Z,9.745380
2023-06-11T00:41:08.295Z,9.745460
2023-06-11T00:42:08.306Z,9.745435
2023-06-11T00:43:08.298Z,9.745525
2023-06-11T00:44:08.264Z,9.745480
2023-06-11T00:45:08.364Z,9.745615
2023-06-11T00:46:08.333Z,9.745674
2023-06-11T00:47:08.264Z,9.745613
2023-06-11T00:48:08.307Z,9.745479
2023-06-11T00:49:08.234Z,9.745372
2023-06-11T00:50:08.223Z,9.745463
2023-06-11T00:51:08.208Z,9.745539
2023-06-11T00:52:08.229Z,9.745687
2023-06-11T00:53:08.196Z,9.745562
2023-06-11T00:54:08.179Z,9.745556
2023-06-11T00:55:08.300Z,9.745753
2023-06-11T00:56:08.187Z,9.745602
2023-06-11T00:57:09.192Z,9.745515
2023-06-11T00:58:08.200Z,9.745779
2023-06-11T00:59:08.149Z,9.746304
2023-06-11T01:00:08.163Z,9.745982
2023-06-11T01:01:08.225Z,9.745575
2023-06-11T01:02:08.136Z,9.745508
2023-06-11T01:03:08.147Z,9.745542
2023-06-11T01:04:08.217Z,9.745465
2023-06-11T01:05:08.206Z,9.745532
2023-06-11T01:06:08.130Z,9.745483
2023-06-11T01:07:08.073Z,9.745656
2023-06-11T01:08:08.072Z,9.745480
2023-06-11T01:09:08.062Z,9.745503
2023-06-11T01:10:08.060Z,9.745400
2023-06-11T01:11:11.051Z,9.745922
2023-06-11T01:12:09.036Z,9.745934
2023-06-11T01:13:08.032Z,9.745983
2023-06-11T01:14:08.036Z,9.745795
2023-06-11T01:15:08.081Z,9.745729
2023-06-11T01:16:08.031Z,9.745565
2023-06-11T01:17:08.094Z,9.745375
2023-06-11T01:18:08.081Z,9.745564
2023-06-11T01:19:07.982Z,9.745701
2023-06-11T01:20:08.006Z,9.745504
2023-06-11T01:21:07.971Z,9.745512
2023-06-11T01:22:07.959Z,9.745409
2023-06-11T01:23:07.953Z,9.745581
2023-06-11T01:24:07.997Z,9.745491
2023-06-11T01:25:08.181Z,9.745401
2023-06-11T01:26:07.920Z,9.745501
2023-06-11T01:27:07.919Z,9.745478
2023-06-11T01:28:07.921Z,9.745385
2023-06-11T01:29:07.926Z,9.745448
2023-06-11T01:30:07.928Z,9.745548
2023-06-11T01:31:07.910Z,9.745552
2023-06-11T01:32:07.893Z,9.745521
2023-06-11T01:33:07.904Z,9.745599
2023-06-11T01:34:07.891Z,9.745669
2023-06-11T01:35:08.251Z,9.745510
2023-06-11T01:36:07.850Z,9.745405
2023-06-11T01:37:07.842Z,9.745449
2023-06-11T01:38:07.830Z,9.745422
2023-06-11T01:39:07.865Z,9.745381
2023-06-11T01:40:07.825Z,9.745478
2023-06-11T01:41:07.806Z,9.745378
2023-06-11T01:42:07.804Z,9.745517
2023-06-11T01:43:07.824Z,9.745472
2023-06-11T01:44:07.817Z,9.745666
2023-06-11T01:45:07.856Z,9.745611
2023-06-11T01:46:07.820Z,9.745607
2023-06-11T01:47:07.756Z,9.745661
2023-06-11T01:48:07.815Z,9.745538
2023-06-11T01:49:07.775Z,9.745539
2023-06-11T01:50:07.808Z,9.745547
2023-06-11T01:51:07.732Z,9.745537
2023-06-11T01:52:07.721Z,9.745531
2023-06-11T01:53:07.744Z,9.745582
2023-06-11T01:54:07.726Z,9.745517
2023-06-11T01:55:07.956Z,9.745462
2023-06-11T01:56:07.691Z,9.745467
2023-06-11T01:57:07.682Z,9.745573
2023-06-11T01:58:07.710Z,9.745512
2023-06-11T01:59:07.695Z,9.745449
2023-06-11T02:00:07.659Z,9.745567
2023-06-11T02:01:07.651Z,9.745565
2023-06-11T02:02:07.697Z,9.745596
2023-06-11T02:03:07.692Z,9.745483
2023-06-11T02:04:07.786Z,9.745511
2023-06-11T02:05:07.726Z,9.745502
2023-06-11T02:06:07.617Z,9.745555
2023-06-11T02:07:07.650Z,9.745568
2023-06-11T02:08:08.605Z,9.745576
2023-06-11T02:09:07.600Z,9.745616
2023-06-11T02:10:07.583Z,9.745543
2023-06-11T02:11:07.588Z,9.745579
2023-06-11T02:12:07.610Z,9.745379
2023-06-11T02:13:07.562Z,9.745606
2023-06-11T02:14:07.560Z,9.745667
2023-06-11T02:15:07.628Z,9.745510
2023-06-11T02:16:07.555Z,9.745592
2023-06-11T02:17:07.561Z,9.745483
2023-06-11T02:18:07.624Z,9.745253
2023-06-11T02:19:07.509Z,9.745525
2023-06-11T02:20:07.542Z,9.745591
2023-06-11T02:21:07.504Z,9.745543
2023-06-11T02:22:07.523Z,9.745565
2023-06-11T02:23:07.491Z,9.745455
2023-06-11T02:24:07.505Z,9.745661
2023-06-11T02:25:07.488Z,9.745667
2023-06-11T02:26:07.473Z,9.745161
2023-06-11T02:27:07.480Z,9.745541
2023-06-11T02:28:07.473Z,9.745330
2023-06-11T02:29:07.444Z,9.745337
2023-06-11T02:30:07.443Z,9.745557
2023-06-11T02:31:07.447Z,9.745555
2023-06-11T02:32:07.541Z,9.745270
2023-06-11T02:33:07.514Z,9.745548
2023-06-11T02:34:07.407Z,9.745494
2023-06-11T02:35:07.403Z,9.745334
2023-06-11T02:36:07.405Z,9.745383
2023-06-11T02:37:07.380Z,9.745498
2023-06-11T02:38:07.393Z,9.745406
2023-06-11T02:39:07.362Z,9.745794
2023-06-11T02:40:07.373Z,9.746069
2023-06-11T02:41:07.378Z,9.745745
2023-06-11T02:42:07.334Z,9.745875
2023-06-11T02:43:07.332Z,9.745708
2023-06-11T02:44:07.323Z,9.745361
2023-06-11T02:45:07.437Z,9.745581
2023-06-11T02:46:07.419Z,9.745973
2023-06-11T02:47:07.322Z,9.745407
2023-06-11T02:48:07.364Z,9.745492
2023-06-11T02:49:07.294Z,9.745673
2023-06-11T02:50:07.280Z,9.745343
2023-06-11T02:51:07.305Z,9.745402
2023-06-11T02:52:07.267Z,9.745407
2023-06-11T02:53:07.270Z,9.745468
2023-06-11T02:54:07.237Z,9.745456
2023-06-11T02:55:07.265Z,9.745742
2023-06-11T02:56:07.255Z,9.745784
2023-06-11T02:57:07.222Z,9.745631
2023-06-11T02:58:07.217Z,9.746154
2023-06-11T02:59:07.209Z,9.746357
2023-06-11T03:00:07.251Z,9.746059
2023-06-11T03:01:07.223Z,9.745675
2023-06-11T03:02:07.189Z,9.745423
2023-06-11T03:03:07.291Z,9.745653
2023-06-11T03:04:07.273Z,9.745522
2023-06-11T03:05:07.189Z,9.745409
2023-06-11T03:06:07.159Z,9.745449
2023-06-11T03:07:07.142Z,9.745589
2023-06-11T03:08:07.137Z,9.745741
2023-06-11T03:09:07.164Z,9.745329
2023-06-11T03:10:07.156Z,9.745129
2023-06-11T03:11:07.112Z,9.745324
2023-06-11T03:12:07.100Z,9.745488
2023-06-11T03:13:07.095Z,9.745195
2023-06-11T03:14:07.110Z,9.745373
2023-06-11T03:15:07.092Z,9.745858
2023-06-11T03:16:07.106Z,9.745478
2023-06-11T03:17:07.063Z,9.745291
2023-06-11T03:18:07.122Z,9.744862
2023-06-11T03:19:07.080Z,9.744887
2023-06-11T03:20:07.047Z,9.745234
2023-06-11T03:21:07.029Z,9.745581
2023-06-11T03:22:07.021Z,9.745518
2023-06-11T03:23:07.041Z,9.745654
2023-06-11T03:24:07.063Z,9.745698
2023-06-11T03:25:06.999Z,9.745438
2023-06-11T03:26:06.991Z,9.745375
2023-06-11T03:27:07.002Z,9.745407
2023-06-11T03:28:07.000Z,9.745447
2023-06-11T03:29:06.977Z,9.745590
2023-06-11T03:30:06.966Z,9.745568
2023-06-11T03:31:07.039Z,9.745656
2023-06-11T03:32:06.943Z,9.745604
2023-06-11T03:33:06.997Z,9.745511
2023-06-11T03:34:06.928Z,9.745507
2023-06-11T03:35:06.920Z,9.745398
2023-06-11T03:36:06.910Z,9.745401
2023-06-11T03:37:06.905Z,9.745525
2023-06-11T03:38:06.921Z,9.745623
2023-06-11T03:39:06.891Z,9.745531
2023-06-11T03:40:06.892Z,9.745576
2023-06-11T03:41:06.873Z,9.745452
2023-06-11T03:42:06.898Z,9.745489
2023-06-11T03:43:06.886Z,9.745395
2023-06-11T03:44:06.874Z,9.745372
2023-06-11T03:45:06.839Z,9.745421
2023-06-11T03:46:06.834Z,9.745311
2023-06-11T03:47:06.990Z,9.745409
2023-06-11T03:48:06.847Z,9.745348
2023-06-11T03:49:06.809Z,9.745394
2023-06-11T03:50:06.799Z,9.745429
2023-06-11T03:51:06.787Z,9.745469
2023-06-11T03:52:06.813Z,9.745422
2023-06-11T03:53:06.786Z,9.745423
2023-06-11T03:54:06.769Z,9.745423
2023-06-11T03:55:06.758Z,9.745441
2023-06-11T03:56:06.775Z,9.745446
2023-06-11T03:57:06.768Z,9.745435
2023-06-11T03:58:06.727Z,9.745559
2023-06-11T03:59:07.735Z,9.745445
2023-06-11T04:00:06.716Z,9.745275
2023-06-11T04:01:06.744Z,9.745250
2023-06-11T04:02:06.718Z,9.745388
2023-06-11T04:03:06.893Z,9.745220
2023-06-11T04:04:06.748Z,9.745064
2023-06-11T04:05:06.674Z,9.745275
2023-06-11T04:06:07.698Z,9.745308
2023-06-11T04:07:06.689Z,9.745231
2023-06-11T04:08:06.674Z,9.745364
2023-06-11T04:09:06.645Z,9.745324
2023-06-11T04:10:06.663Z,9.745400
2023-06-11T04:11:06.735Z,9.745120
2023-06-11T04:12:06.619Z,9.745339
2023-06-11T04:13:06.613Z,9.745496
2023-06-11T04:14:06.617Z,9.745775
2023-06-11T04:15:06.623Z,9.745350
2023-06-11T04:16:07.419Z,9.745447
2023-06-11T04:17:07.593Z,9.745396
2023-06-11T04:18:06.640Z,9.745182
2023-06-11T04:19:06.566Z,9.745289
2023-06-11T04:20:06.587Z,9.745446
2023-06-11T04:21:06.547Z,9.745616
2023-06-11T04:22:06.547Z,9.745261
2023-06-11T04:23:06.532Z,9.745482
2023-06-11T04:24:09.256Z,9.745597
2023-06-11T04:25:07.552Z,9.745334
2023-06-11T04:26:06.510Z,9.745440
2023-06-11T04:27:06.503Z,9.745415
2023-06-11T04:28:06.499Z,9.745522
2023-06-11T04:29:06.511Z,9.745579
2023-06-11T04:30:06.490Z,9.745455
2023-06-11T04:31:06.483Z,9.745418
2023-06-11T04:32:06.461Z,9.745440
2023-06-11T04:33:06.488Z,9.745515
2023-06-11T04:34:06.468Z,9.745579
2023-06-11T04:35:06.441Z,9.745667
2023-06-11T04:36:06.424Z,9.745633
2023-06-11T04:37:06.421Z,9.745570
2023-06-11T04:38:06.443Z,9.745608
2023-06-11T04:39:06.428Z,9.745642
2023-06-11T04:40:06.401Z,9.745648
2023-06-11T04:41:06.413Z,9.745691
2023-06-11T04:42:06.392Z,9.745650
2023-06-11T04:43:06.398Z,9.745768
2023-06-11T04:44:06.396Z,9.745632
2023-06-11T04:45:06.356Z,9.745973
2023-06-11T04:46:06.416Z,9.745688
2023-06-11T04:47:06.436Z,9.745728
2023-06-11T04:48:38.274Z,9.746170
2023-06-11T04:49:06.329Z,9.745849
2023-06-11T04:50:06.356Z,9.745584
2023-06-11T04:51:06.313Z,9.745690
2023-06-11T04:52:06.319Z,9.745694
2023-06-11T04:53:06.339Z,9.745726
2023-06-11T04:54:06.300Z,9.745834
2023-06-11T04:55:06.294Z,9.745691
2023-06-11T04:56:06.320Z,9.745669
2023-06-11T04:57:06.278Z,9.745444
2023-06-11T04:58:06.293Z,9.745535
2023-06-11T04:59:06.268Z,9.745644
2023-06-11T05:00:06.260Z,9.745613
2023-06-11T05:01:06.263Z,9.745522
2023-06-11T05:02:06.283Z,9.745432
2023-06-11T05:03:06.284Z,9.745442
2023-06-11T05:04:06.251Z,9.745466
2023-06-11T05:05:06.237Z,9.745370
2023-06-11T05:06:06.239Z,9.745597
2023-06-11T05:07:06.253Z,9.745595
2023-06-11T05:08:06.281Z,9.745445
2023-06-11T05:09:06.214Z,9.745582
2023-06-11T05:10:06.193Z,9.745608
2023-06-11T05:11:06.184Z,9.745837
2023-06-11T05:12:06.200Z,9.745548
2023-06-11T05:13:06.177Z,9.745345
2023-06-11T05:14:06.169Z,9.745534
2023-06-11T05:15:06.167Z,9.745368
2023-06-11T05:16:06.170Z,9.745567
2023-06-11T05:17:06.185Z,9.745580
2023-06-11T05:18:06.196Z,9.745420
2023-06-11T05:19:06.132Z,9.745424
2023-06-11T05:20:06.126Z,9.745538
2023-06-11T05:21:06.171Z,9.745539
2023-06-11T05:22:06.107Z,9.745541
2023-06-11T05:23:06.099Z,9.745638
2023-06-11T05:24:06.126Z,9.745571
2023-06-11T05:25:06.093Z,9.745511
2023-06-11T05:26:06.095Z,9.745392
2023-06-11T05:27:07.071Z,9.745212
2023-06-11T05:28:06.064Z,9.745519
2023-06-11T05:29:06.057Z,9.746178
2023-06-11T05:30:06.089Z,9.745915
2023-06-11T05:31:06.064Z,9.745481
2023-06-11T05:32:06.058Z,9.745346
2023-06-11T05:33:06.053Z,9.745369
2023-06-11T05:34:06.022Z,9.745609
2023-06-11T05:35:06.064Z,9.745171
2023-06-11T05:36:06.007Z,9.745005
2023-06-11T05:37:06.008Z,9.745384
2023-06-11T05:38:05.992Z,9.745605
2023-06-11T05:39:05.991Z,9.744726
2023-06-11T05:40:06.005Z,9.744310
2023-06-11T05:41:05.969Z,9.744806
2023-06-11T05:42:05.962Z,9.744831
2023-06-11T05:43:05.975Z,9.744831
2023-06-11T05:44:05.959Z,9.745661
2023-06-11T05:45:05.966Z,9.745718
2023-06-11T05:46:05.994Z,9.745722
2023-06-11T05:47:05.970Z,9.745657
2023-06-11T05:48:05.961Z,9.745499
2023-06-11T05:49:05.941Z,9.745393
2023-06-11T05:50:05.948Z,9.745648
2023-06-11T05:51:05.918Z,9.745597
2023-06-11T05:52:05.897Z,9.745757
2023-06-11T05:53:05.889Z,9.745631
2023-06-11T05:54:05.907Z,9.745695
2023-06-11T05:55:05.875Z,9.745622
2023-06-11T05:56:05.873Z,9.745576
2023-06-11T05:57:05.861Z,9.745557
2023-06-11T05:58:05.856Z,9.745360
2023-06-11T05:59:05.880Z,9.745574
2023-06-11T06:00:05.912Z,9.745597
2023-06-11T06:01:05.837Z,9.745878
2023-06-11T06:02:05.886Z,9.745765
2023-06-11T06:03:06.058Z,9.745583
2023-06-11T06:04:05.994Z,9.745447
2023-06-11T06:05:05.826Z,9.745293
2023-06-11T06:06:05.810Z,9.745828
2023-06-11T06:07:05.800Z,9.745740
2023-06-11T06:08:05.812Z,9.745693
2023-06-11T06:09:05.819Z,9.745712
2023-06-11T06:10:05.788Z,9.745398
2023-06-11T06:11:05.776Z,9.745889
2023-06-11T06:12:05.767Z,9.745784
2023-06-11T06:13:05.790Z,9.745460
2023-06-11T06:14:05.754Z,9.745564
2023-06-11T06:15:05.749Z,9.745972
2023-06-11T06:16:05.753Z,9.745604
2023-06-11T06:17:05.744Z,9.745597
2023-06-11T06:18:05.875Z,9.745597
2023-06-11T06:19:05.721Z,9.745597
2023-06-11T06:20:05.717Z,9.745597
2023-06-11T06:21:05.712Z,9.745597
2023-06-11T06:22:05.703Z,9.745597
2023-06-11T06:23:05.733Z,9.745597
2023-06-11T06:24:05.734Z,9.745597
2023-06-11T06:25:05.690Z,9.745597
2023-06-11T06:26:05.681Z,9.745597
2023-06-11T06:27:05.729Z,9.744694
2023-06-11T06:28:05.695Z,9.744947
2023-06-11T06:29:05.664Z,9.745188
2023-06-11T06:30:05.660Z,9.745356
2023-06-11T06:31:05.651Z,9.745499
2023-06-11T06:32:05.707Z,9.745593
2023-06-11T06:33:05.668Z,9.745334
2023-06-11T06:34:05.640Z,9.745146
2023-06-11T06:35:05.633Z,9.745266
2023-06-11T06:36:05.630Z,9.745599
2023-06-11T06:37:05.662Z,9.745782
2023-06-11T06:38:05.619Z,9.745823
2023-06-11T06:39:05.613Z,9.745725
2023-06-11T06:40:05.623Z,9.745555
2023-06-11T06:41:05.619Z,9.745531
2023-06-11T06:42:05.618Z,9.745746
2023-06-11T06:43:05.599Z,9.746001
2023-06-11T06:44:05.613Z,9.745733
2023-06-11T06:45:05.570Z,9.745580
2023-06-11T06:46:05.601Z,9.745291
2023-06-11T06:47:05.562Z,9.745506
2023-06-11T06:48:05.601Z,9.745621
2023-06-11T06:49:05.603Z,9.745629
2023-06-11T06:50:05.556Z,9.745489
2023-06-11T06:51:05.559Z,9.745756
2023-06-11T06:52:05.528Z,9.745738
2023-06-11T06:53:05.538Z,9.745714
2023-06-11T06:54:05.519Z,9.745592
2023-06-11T06:55:05.509Z,9.745570
2023-06-11T06:56:05.528Z,9.745587
2023-06-11T06:57:05.505Z,9.745683
2023-06-11T06:58:05.495Z,9.745376
2023-06-11T06:59:05.483Z,9.745267
2023-06-11T07:00:05.521Z,9.745422
2023-06-11T07:01:05.529Z,9.745528
2023-06-11T07:02:08.717Z,9.745275
2023-06-11T07:03:05.513Z,9.745460
2023-06-11T07:04:05.458Z,9.745438
2023-06-11T07:05:05.502Z,9.745385
2023-06-11T07:06:05.509Z,9.745641
2023-06-11T07:07:05.444Z,9.745615
2023-06-11T07:08:05.430Z,9.745642
2023-06-11T07:09:05.427Z,9.745817
2023-06-11T07:10:05.444Z,9.745814
2023-06-11T07:11:05.414Z,9.745728
2023-06-11T07:12:05.398Z,9.745568
2023-06-11T07:13:05.403Z,9.745583
2023-06-11T07:14:05.418Z,9.745514
2023-06-11T07:15:05.423Z,9.745723
2023-06-11T07:16:05.402Z,9.745717
2023-06-11T07:17:05.385Z,9.745638
2023-06-11T07:18:05.426Z,9.745688
2023-06-11T07:19:05.402Z,9.745644
2023-06-11T07:20:05.393Z,9.745762
2023-06-11T07:21:05.363Z,9.745912
2023-06-11T07:22:05.342Z,9.745662
2023-06-11T07:23:05.341Z,9.745619
2023-06-11T07:24:05.386Z,9.745814
2023-06-11T07:25:05.337Z,9.745727
2023-06-11T07:26:05.323Z,9.745377
2023-06-11T07:27:05.310Z,9.745373
2023-06-11T07:28:05.349Z,9.745387
2023-06-11T07:29:05.308Z,9.745469
2023-06-11T07:30:06.292Z,9.745611
2023-06-11T07:31:05.366Z,9.745275
2023-06-11T07:32:05.276Z,9.745316
2023-06-11T07:33:05.362Z,9.745234
2023-06-11T07:34:05.258Z,9.745131
2023-06-11T07:35:05.254Z,9.745203
2023-06-11T07:36:05.242Z,9.745564
2023-06-11T07:37:05.235Z,9.745442
2023-06-11T07:38:05.252Z,9.745272
2023-06-11T07:39:05.223Z,9.745148
2023-06-11T07:40:05.218Z,9.745203
2023-06-11T07:41:05.212Z,9.745244
2023-06-11T07:42:05.232Z,9.745325
2023-06-11T07:43:05.246Z,9.745551
2023-06-11T07:44:05.192Z,9.745498
2023-06-11T07:45:05.183Z,9.745221
2023-06-11T07:46:05.217Z,9.745176
2023-06-11T07:47:05.252Z,9.745187
2023-06-11T07:48:05.240Z,9.745197
2023-06-11T07:49:05.157Z,9.745025
2023-06-11T07:50:05.165Z,9.745100
2023-06-11T07:51:05.149Z,9.745193
2023-06-11T07:52:05.169Z,9.745059
2023-06-11T07:53:05.135Z,9.745082
2023-06-11T07:54:05.134Z,9.745024
2023-06-11T07:55:05.126Z,9.745167
2023-06-11T07:56:05.145Z,9.745408
2023-06-11T07:57:05.135Z,9.745161
2023-06-11T07:58:05.098Z,9.745152
2023-06-11T07:59:05.092Z,9.745118
2023-06-11T08:00:05.085Z,9.745081
2023-06-11T08:01:05.108Z,9.745342
2023-06-11T08:02:05.105Z,9.745230
2023-06-11T08:03:05.166Z,9.745234
2023-06-11T08:04:05.067Z,9.745282
2023-06-11T08:05:05.048Z,9.745257
2023-06-11T08:06:05.088Z,9.745420
2023-06-11T08:07:05.035Z,9.745390
2023-06-11T08:08:05.023Z,9.745293
2023-06-11T08:09:05.019Z,9.745464
2023-06-11T08:10:05.055Z,9.745440
2023-06-11T08:11:05.037Z,9.745422
2023-06-11T08:12:05.995Z,9.745429
2023-06-11T08:13:04.990Z,9.745444
2023-06-11T08:14:04.985Z,9.745553
2023-06-11T08:15:05.012Z,9.745473
2023-06-11T08:16:04.983Z,9.745360
2023-06-11T08:17:05.012Z,9.745537
2023-06-11T08:18:04.978Z,9.745363
2023-06-11T08:19:04.952Z,9.745491
2023-06-11T08:20:04.968Z,9.745582
2023-06-11T08:21:04.940Z,9.745361
2023-06-11T08:22:04.929Z,9.745681
2023-06-11T08:23:04.938Z,9.745659
2023-06-11T08:24:05.021Z,9.745747
2023-06-11T08:25:04.947Z,9.745564
2023-06-11T08:26:04.921Z,9.745770
2023-06-11T08:27:04.899Z,9.745439
2023-06-11T08:28:04.887Z,9.745607
2023-06-11T08:29:04.907Z,9.745556
2023-06-11T08:30:04.871Z,9.745376
2023-06-11T08:31:04.869Z,9.745355
2023-06-11T08:32:04.882Z,9.745586
2023-06-11T08:33:04.878Z,9.745340
2023-06-11T08:34:04.868Z,9.745493
2023-06-11T08:35:04.837Z,9.745515
2023-06-11T08:36:04.848Z,9.745434
2023-06-11T08:37:04.823Z,9.745574
2023-06-11T08:38:04.815Z,9.745477
2023-06-11T08:39:04.842Z,9.746210
2023-06-11T08:40:04.803Z,9.745725
2023-06-11T08:41:04.799Z,9.745621
2023-06-11T08:42:04.797Z,9.745732
2023-06-11T08:43:04.813Z,9.745614
2023-06-11T08:44:04.805Z,9.745750
2023-06-11T08:45:04.768Z,9.745628
2023-06-11T08:46:04.806Z,9.745601
2023-06-11T08:47:04.759Z,9.745565
2023-06-11T08:48:04.853Z,9.745755
2023-06-11T08:49:04.766Z,9.745377
2023-06-11T08:50:04.745Z,9.745667
2023-06-11T08:51:04.731Z,9.746112
2023-06-11T08:52:04.734Z,9.745473
2023-06-11T08:53:04.745Z,9.745690
2023-06-11T08:54:04.707Z,9.745775
2023-06-11T08:55:04.703Z,9.745518
2023-06-11T08:56:04.697Z,9.745625
2023-06-11T08:57:04.690Z,9.745703
2023-06-11T08:58:04.701Z,9.745670
2023-06-11T08:59:04.671Z,9.745534
2023-06-11T09:00:04.666Z,9.745527
2023-06-11T09:01:04.659Z,9.745788
2023-06-11T09:02:04.757Z,9.745638
2023-06-11T09:03:04.738Z,9.745740
2023-06-11T09:04:04.648Z,9.746194
2023-06-11T09:05:04.628Z,9.746662
2023-06-11T09:06:04.618Z,9.745900
2023-06-11T09:07:04.953Z,9.745937
2023-06-11T09:08:04.651Z,9.745730
2023-06-11T09:09:04.601Z,9.745639
2023-06-11T09:10:04.623Z,9.745518
2023-06-11T09:11:04.591Z,9.745366
2023-06-11T09:12:04.623Z,9.745521
2023-06-11T09:13:04.578Z,9.745582
2023-06-11T09:14:04.574Z,9.745183
2023-06-11T09:15:04.594Z,9.745074
2023-06-11T09:16:04.575Z,9.745420
2023-06-11T09:17:04.574Z,9.745630
2023-06-11T09:18:05.381Z,9.745366
2023-06-11T09:19:04.534Z,9.745483
2023-06-11T09:20:04.519Z,9.745534
2023-06-11T09:21:04.579Z,9.745359
2023-06-11T09:22:04.538Z,9.745636
2023-06-11T09:23:04.514Z,9.745747
2023-06-11T09:24:04.520Z,9.745677
2023-06-11T09:25:04.488Z,9.745701
2023-06-11T09:26:04.518Z,9.745856
2023-06-11T09:27:04.479Z,9.745696
2023-06-11T09:28:04.472Z,9.745421
2023-06-11T09:29:04.463Z,9.745429
2023-06-11T09:30:04.460Z,9.745244
2023-06-11T09:31:04.480Z,9.745346
2023-06-11T09:32:09.968Z,9.745460
2023-06-11T09:33:05.486Z,9.745416
2023-06-11T09:34:04.424Z,9.745577
2023-06-11T09:35:04.443Z,9.745544
2023-06-11T09:36:04.447Z,9.745565
2023-06-11T09:37:04.403Z,9.745463
2023-06-11T09:38:04.397Z,9.745373
2023-06-11T09:39:04.384Z,9.745440
2023-06-11T09:40:04.411Z,9.745402
2023-06-11T09:41:04.371Z,9.745495
2023-06-11T09:42:04.367Z,9.745353
2023-06-11T09:43:04.366Z,9.745477
2023-06-11T09:44:04.363Z,9.745351
2023-06-11T09:45:04.368Z,9.745533
2023-06-11T09:46:04.397Z,9.745541
2023-06-11T09:47:04.328Z,9.745506
2023-06-11T09:48:04.337Z,9.745556
2023-06-11T09:49:04.340Z,9.745556
2023-06-11T09:50:04.341Z,9.745464
2023-06-11T09:51:04.291Z,9.745630
2023-06-11T09:52:04.291Z,9.745189
2023-06-11T09:53:04.277Z,9.745122
2023-06-11T09:54:04.308Z,9.744759
2023-06-11T09:55:04.284Z,9.745078
2023-06-11T09:56:10.964Z,9.745438
2023-06-11T09:57:06.269Z,9.745439
2023-06-11T09:58:04.254Z,9.745655
2023-06-11T09:59:04.275Z,9.745332
2023-06-11T10:00:04.245Z,9.745416
2023-06-11T10:01:07.211Z,9.745561
2023-06-11T10:02:05.222Z,9.745277
2023-06-11T10:03:04.321Z,9.745182
2023-06-11T10:04:04.280Z,9.745028
2023-06-11T10:05:04.208Z,9.744882
2023-06-11T10:06:04.193Z,9.744839
2023-06-11T10:07:04.191Z,9.744882
2023-06-11T10:08:04.229Z,9.744668
2023-06-11T10:09:04.174Z,9.744490
2023-06-11T10:10:04.165Z,9.744584
2023-06-11T10:11:04.187Z,9.745021
2023-06-11T10:12:04.149Z,9.745082
2023-06-11T10:13:04.180Z,9.745190
2023-06-11T10:14:04.138Z,9.745223
2023-06-11T10:15:04.128Z,9.746222
2023-06-11T10:16:04.249Z,9.746070
2023-06-11T10:17:04.117Z,9.745747
2023-06-11T10:18:04.183Z,9.745718
2023-06-11T10:19:04.108Z,9.745729
2023-06-11T10:20:04.094Z,9.745852
2023-06-11T10:21:04.088Z,9.745501
2023-06-11T10:22:04.083Z,9.745460
2023-06-11T10:23:06.332Z,9.745445
2023-06-11T10:24:05.119Z,9.745416
2023-06-11T10:25:04.064Z,9.745485
2023-06-11T10:26:04.041Z,9.745417
2023-06-11T10:27:04.092Z,9.745522
2023-06-11T10:28:04.059Z,9.745448
2023-06-11T10:29:06.345Z,9.745517
2023-06-11T10:30:04.012Z,9.745401
2023-06-11T10:31:04.016Z,9.745461
2023-06-11T10:32:04.015Z,9.745378
2023-06-11T10:33:04.160Z,9.745483
2023-06-11T10:34:04.118Z,9.745575
2023-06-11T10:35:04.141Z,9.745397
2023-06-11T10:36:03.970Z,9.745383
2023-06-11T10:37:03.983Z,9.745264
2023-06-11T10:38:03.955Z,9.745337
2023-06-11T10:39:03.942Z,9.745378
2023-06-11T10:40:03.930Z,9.745494
2023-06-11T10:41:03.999Z,9.745515
2023-06-11T10:42:03.975Z,9.745376
2023-06-11T10:43:03.904Z,9.745407
2023-06-11T10:44:03.899Z,9.745448
2023-06-11T10:45:03.880Z,9.745532
2023-06-11T10:46:04.910Z,9.745576
2023-06-11T10:47:04.087Z,9.745494
2023-06-11T10:48:36.271Z,9.745647
2023-06-11T10:49:03.861Z,9.745701
2023-06-11T10:50:03.857Z,9.745576
2023-06-11T10:51:03.892Z,9.745149
2023-06-11T10:52:03.867Z,9.745106
2023-06-11T10:53:03.891Z,9.745427
2023-06-11T10:54:03.840Z,9.745571
2023-06-11T10:55:03.826Z,9.745422
2023-06-11T10:56:03.854Z,9.745457
2023-06-11T10:57:03.838Z,9.745477
2023-06-11T10:58:03.807Z,9.745509
2023-06-11T10:59:03.791Z,9.745454
2023-06-11T11:00:03.805Z,9.745474
2023-06-11T11:01:03.801Z,9.745422
2023-06-11T11:02:03.791Z,9.745432
2023-06-11T11:03:03.817Z,9.745264
2023-06-11T11:04:03.867Z,9.745229
2023-06-11T11:05:03.770Z,9.745040
2023-06-11T11:06:03.760Z,9.745208
2023-06-11T11:07:03.721Z,9.745342
2023-06-11T11:08:03.719Z,9.745378
2023-06-11T11:09:03.712Z,9.745371
2023-06-11T11:10:03.738Z,9.745375
2023-06-11T11:11:03.712Z,9.745378
2023-06-11T11:12:03.698Z,9.745441
2023-06-11T11:13:03.685Z,9.745467
2023-06-11T11:14:03.675Z,9.745368
2023-06-11T11:15:03.690Z,9.745495
2023-06-11T11:16:03.759Z,9.745473
2023-06-11T11:17:03.705Z,9.745487
2023-06-11T11:18:03.728Z,9.745411
2023-06-11T11:19:03.633Z,9.745388
2023-06-11T11:20:03.660Z,9.745495
2023-06-11T11:21:03.624Z,9.745544
2023-06-11T11:22:03.619Z,9.745483
2023-06-11T11:23:03.608Z,9.745296
2023-06-11T11:24:03.702Z,9.745399
2023-06-11T11:25:03.612Z,9.745409
2023-06-11T11:26:03.589Z,9.745606
2023-06-11T11:27:03.582Z,9.745514
2023-06-11T11:28:03.573Z,9.745621
2023-06-11T11:29:03.577Z,9.745696
2023-06-11T11:30:04.155Z,9.745609
2023-06-11T11:31:04.543Z,9.745491
2023-06-11T11:32:03.582Z,9.745506
2023-06-11T11:33:03.647Z,9.745460
2023-06-11T11:34:03.539Z,9.745373
2023-06-11T11:35:03.516Z,9.745324
2023-06-11T11:36:03.499Z,9.745393
2023-06-11T11:37:03.497Z,9.745492
2023-06-11T11:38:03.494Z,9.745490
2023-06-11T11:39:03.506Z,9.745575
2023-06-11T11:40:03.475Z,9.745564
2023-06-11T11:41:03.474Z,9.745572
2023-06-11T11:42:03.473Z,9.745477
2023-06-11T11:43:03.488Z,9.745457
2023-06-11T11:44:03.478Z,9.745335